sensor_id;sensor_type;location;lat;lon;timestamp;pressure;altitude;pressure_sealevel;temperature;humidity
78841;BME280;68379;47.190;27.558;2024-01-11T00:01:21;100914.23;;;-6.71;62.34
78841;BME280;68379;47.190;27.558;2024-01-11T00:03:52;100916.30;;;-6.78;62.15
78841;BME280;68379;47.190;27.558;2024-01-11T00:06:24;100917.98;;;-6.97;62.63
78841;BME280;68379;47.190;27.558;2024-01-11T00:08:56;100922.66;;;-7.17;63.03
78841;BME280;68379;47.190;27.558;2024-01-11T00:11:27;100919.90;;;-7.32;63.20
78841;BME280;68379;47.190;27.558;2024-01-11T00:13:59;100916.38;;;-7.34;63.08
78841;BME280;68379;47.190;27.558;2024-01-11T00:16:30;100918.59;;;-7.30;62.85
78841;BME280;68379;47.190;27.558;2024-01-11T00:19:01;100917.77;;;-7.26;62.77
78841;BME280;68379;47.190;27.558;2024-01-11T00:21:33;100920.13;;;-7.24;62.76
78841;BME280;68379;47.190;27.558;2024-01-11T00:24:05;100922.86;;;-7.27;62.67
78841;BME280;68379;47.190;27.558;2024-01-11T00:26:37;100922.27;;;-7.32;62.87
78841;BME280;68379;47.190;27.558;2024-01-11T00:29:08;100920.14;;;-7.37;63.11
78841;BME280;68379;47.190;27.558;2024-01-11T00:31:40;100917.55;;;-7.41;63.23
78841;BME280;68379;47.190;27.558;2024-01-11T00:34:11;100915.64;;;-7.45;63.14
78841;BME280;68379;47.190;27.558;2024-01-11T00:36:43;100912.30;;;-7.47;63.26
78841;BME280;68379;47.190;27.558;2024-01-11T00:39:14;100910.56;;;-7.47;63.10
78841;BME280;68379;47.190;27.558;2024-01-11T00:41:49;100910.08;;;-7.46;63.06
78841;BME280;68379;47.190;27.558;2024-01-11T00:44:20;100907.61;;;-7.48;62.86
78841;BME280;68379;47.190;27.558;2024-01-11T00:46:52;100902.69;;;-7.50;62.68
78841;BME280;68379;47.190;27.558;2024-01-11T00:49:24;100897.33;;;-7.51;62.91
78841;BME280;68379;47.190;27.558;2024-01-11T00:51:56;100892.77;;;-7.53;62.74
78841;BME280;68379;47.190;27.558;2024-01-11T00:54:28;100889.58;;;-7.55;62.87
78841;BME280;68379;47.190;27.558;2024-01-11T00:57:00;100876.19;;;-7.58;62.89
78841;BME280;68379;47.190;27.558;2024-01-11T00:59:31;100873.63;;;-7.62;62.86
78841;BME280;68379;47.190;27.558;2024-01-11T01:02:03;100870.32;;;-7.63;62.86
78841;BME280;68379;47.190;27.558;2024-01-11T01:04:35;100866.94;;;-7.62;62.91
78841;BME280;68379;47.190;27.558;2024-01-11T01:07:08;100862.09;;;-7.59;63.00
78841;BME280;68379;47.190;27.558;2024-01-11T01:09:40;100857.67;;;-7.62;62.98
78841;BME280;68379;47.190;27.558;2024-01-11T01:12:12;100855.63;;;-7.68;62.89
78841;BME280;68379;47.190;27.558;2024-01-11T01:14:43;100850.73;;;-7.77;62.80
78841;BME280;68379;47.190;27.558;2024-01-11T01:17:15;100844.47;;;-7.85;62.83
78841;BME280;68379;47.190;27.558;2024-01-11T01:19:46;100845.50;;;-7.92;63.01
78841;BME280;68379;47.190;27.558;2024-01-11T01:22:18;100842.12;;;-7.98;63.01
78841;BME280;68379;47.190;27.558;2024-01-11T01:24:49;100838.06;;;-8.03;62.96
78841;BME280;68379;47.190;27.558;2024-01-11T01:27:21;100832.41;;;-8.07;63.07
78841;BME280;68379;47.190;27.558;2024-01-11T01:29:53;100830.16;;;-8.10;63.18
78841;BME280;68379;47.190;27.558;2024-01-11T01:32:25;100832.33;;;-8.12;63.18
78841;BME280;68379;47.190;27.558;2024-01-11T01:34:56;100829.73;;;-8.15;63.30
78841;BME280;68379;47.190;27.558;2024-01-11T01:37:28;100821.14;;;-8.16;63.46
78841;BME280;68379;47.190;27.558;2024-01-11T01:40:00;100812.24;;;-8.15;63.08
78841;BME280;68379;47.190;27.558;2024-01-11T01:42:32;100814.73;;;-8.11;63.10
78841;BME280;68379;47.190;27.558;2024-01-11T01:45:05;100810.90;;;-8.08;63.19
78841;BME280;68379;47.190;27.558;2024-01-11T01:47:37;100803.77;;;-8.03;63.12
78841;BME280;68379;47.190;27.558;2024-01-11T01:50:10;100794.09;;;-7.98;62.86
78841;BME280;68379;47.190;27.558;2024-01-11T01:52:44;100792.34;;;-7.95;62.96
78841;BME280;68379;47.190;27.558;2024-01-11T01:55:19;100788.44;;;-7.94;62.95
78841;BME280;68379;47.190;27.558;2024-01-11T01:57:51;100781.42;;;-7.94;62.85
78841;BME280;68379;47.190;27.558;2024-01-11T02:00:23;100783.26;;;-7.95;63.11
78841;BME280;68379;47.190;27.558;2024-01-11T02:02:56;100775.99;;;-7.93;63.08
78841;BME280;68379;47.190;27.558;2024-01-11T02:05:28;100772.73;;;-7.90;62.95
78841;BME280;68379;47.190;27.558;2024-01-11T02:08:02;100764.76;;;-7.85;63.10
78841;BME280;68379;47.190;27.558;2024-01-11T02:10:36;100761.48;;;-7.81;63.11
78841;BME280;68379;47.190;27.558;2024-01-11T02:13:07;100762.45;;;-7.79;63.09
78841;BME280;68379;47.190;27.558;2024-01-11T02:15:39;100760.81;;;-7.77;63.29
78841;BME280;68379;47.190;27.558;2024-01-11T02:18:12;100753.55;;;-7.75;63.14
78841;BME280;68379;47.190;27.558;2024-01-11T02:20:44;100746.63;;;-7.73;63.20
78841;BME280;68379;47.190;27.558;2024-01-11T02:23:19;100745.95;;;-7.72;63.20
78841;BME280;68379;47.190;27.558;2024-01-11T02:25:52;100742.14;;;-7.73;63.33
78841;BME280;68379;47.190;27.558;2024-01-11T02:28:24;100745.02;;;-7.74;63.37
78841;BME280;68379;47.190;27.558;2024-01-11T02:30:56;100736.56;;;-7.75;63.41
78841;BME280;68379;47.190;27.558;2024-01-11T02:33:27;100731.65;;;-7.77;63.49
78841;BME280;68379;47.190;27.558;2024-01-11T02:35:59;100734.30;;;-7.79;63.62
78841;BME280;68379;47.190;27.558;2024-01-11T02:38:31;100734.27;;;-7.80;63.57
78841;BME280;68379;47.190;27.558;2024-01-11T02:41:04;100727.93;;;-7.83;63.67
78841;BME280;68379;47.190;27.558;2024-01-11T02:43:36;100724.54;;;-7.86;63.66
78841;BME280;68379;47.190;27.558;2024-01-11T02:46:09;100720.77;;;-7.90;63.76
78841;BME280;68379;47.190;27.558;2024-01-11T02:48:40;100718.06;;;-7.92;63.82
78841;BME280;68379;47.190;27.558;2024-01-11T02:51:12;100717.10;;;-7.91;63.86
78841;BME280;68379;47.190;27.558;2024-01-11T02:53:43;100708.32;;;-7.88;63.72
78841;BME280;68379;47.190;27.558;2024-01-11T02:56:15;100700.60;;;-7.81;63.60
78841;BME280;68379;47.190;27.558;2024-01-11T02:58:46;100701.05;;;-7.79;63.75
78841;BME280;68379;47.190;27.558;2024-01-11T03:01:18;100698.33;;;-7.78;63.67
78841;BME280;68379;47.190;27.558;2024-01-11T03:03:50;100692.69;;;-7.78;63.74
78841;BME280;68379;47.190;27.558;2024-01-11T03:06:23;100690.84;;;-7.77;63.70
78841;BME280;68379;47.190;27.558;2024-01-11T03:08:54;100691.09;;;-7.75;63.69
78841;BME280;68379;47.190;27.558;2024-01-11T03:11:26;100689.36;;;-7.75;63.77
78841;BME280;68379;47.190;27.558;2024-01-11T03:13:57;100682.86;;;-7.75;63.75
78841;BME280;68379;47.190;27.558;2024-01-11T03:16:29;100686.16;;;-7.74;63.72
78841;BME280;68379;47.190;27.558;2024-01-11T03:19:01;100680.02;;;-7.74;63.72
78841;BME280;68379;47.190;27.558;2024-01-11T03:21:32;100683.98;;;-7.73;63.82
78841;BME280;68379;47.190;27.558;2024-01-11T03:24:04;100676.45;;;-7.76;63.78
78841;BME280;68379;47.190;27.558;2024-01-11T03:26:36;100672.25;;;-7.78;63.61
78841;BME280;68379;47.190;27.558;2024-01-11T03:29:07;100669.70;;;-7.82;63.80
78841;BME280;68379;47.190;27.558;2024-01-11T03:31:39;100669.23;;;-7.84;63.86
78841;BME280;68379;47.190;27.558;2024-01-11T03:34:11;100669.58;;;-7.85;63.80
78841;BME280;68379;47.190;27.558;2024-01-11T03:36:42;100670.35;;;-7.86;63.82
78841;BME280;68379;47.190;27.558;2024-01-11T03:39:16;100665.58;;;-7.89;63.87
78841;BME280;68379;47.190;27.558;2024-01-11T03:41:48;100667.64;;;-7.92;64.03
78841;BME280;68379;47.190;27.558;2024-01-11T03:44:20;100660.69;;;-7.94;64.06
78841;BME280;68379;47.190;27.558;2024-01-11T03:46:52;100654.33;;;-7.95;64.05
78841;BME280;68379;47.190;27.558;2024-01-11T03:49:24;100654.05;;;-7.93;64.14
78841;BME280;68379;47.190;27.558;2024-01-11T03:51:55;100649.52;;;-7.91;64.16
78841;BME280;68379;47.190;27.558;2024-01-11T03:54:26;100647.06;;;-7.89;64.03
78841;BME280;68379;47.190;27.558;2024-01-11T03:56:58;100636.96;;;-7.89;64.03
78841;BME280;68379;47.190;27.558;2024-01-11T03:59:29;100635.02;;;-7.90;64.02
78841;BME280;68379;47.190;27.558;2024-01-11T04:02:01;100632.20;;;-7.91;64.19
78841;BME280;68379;47.190;27.558;2024-01-11T04:04:32;100624.16;;;-7.90;64.10
78841;BME280;68379;47.190;27.558;2024-01-11T04:07:04;100619.04;;;-7.90;64.22
78841;BME280;68379;47.190;27.558;2024-01-11T04:09:38;100614.58;;;-7.90;64.26
78841;BME280;68379;47.190;27.558;2024-01-11T04:12:10;100610.50;;;-7.90;64.23
78841;BME280;68379;47.190;27.558;2024-01-11T04:14:42;100610.67;;;-7.89;64.19
78841;BME280;68379;47.190;27.558;2024-01-11T04:17:13;100608.84;;;-7.89;64.13
78841;BME280;68379;47.190;27.558;2024-01-11T04:19:45;100601.23;;;-7.90;64.28
78841;BME280;68379;47.190;27.558;2024-01-11T04:22:16;100603.80;;;-7.93;64.31
78841;BME280;68379;47.190;27.558;2024-01-11T04:24:48;100601.28;;;-7.96;64.31
78841;BME280;68379;47.190;27.558;2024-01-11T04:27:20;100599.46;;;-7.98;64.42
78841;BME280;68379;47.190;27.558;2024-01-11T04:29:52;100594.08;;;-7.99;64.60
78841;BME280;68379;47.190;27.558;2024-01-11T04:32:23;100594.19;;;-8.01;64.61
78841;BME280;68379;47.190;27.558;2024-01-11T04:34:55;100589.85;;;-8.02;64.78
78841;BME280;68379;47.190;27.558;2024-01-11T04:37:26;100593.34;;;-8.00;64.60
78841;BME280;68379;47.190;27.558;2024-01-11T04:40:00;100590.95;;;-7.93;64.56
78841;BME280;68379;47.190;27.558;2024-01-11T04:42:31;100591.98;;;-7.90;64.57
78841;BME280;68379;47.190;27.558;2024-01-11T04:45:04;100594.37;;;-7.86;64.70
78841;BME280;68379;47.190;27.558;2024-01-11T04:47:35;100589.93;;;-7.86;64.69
78841;BME280;68379;47.190;27.558;2024-01-11T04:50:09;100589.98;;;-7.84;64.73
78841;BME280;68379;47.190;27.558;2024-01-11T04:52:40;100580.69;;;-7.85;64.71
78841;BME280;68379;47.190;27.558;2024-01-11T04:55:12;100574.98;;;-7.86;64.71
78841;BME280;68379;47.190;27.558;2024-01-11T04:57:44;100574.33;;;-7.89;64.79
78841;BME280;68379;47.190;27.558;2024-01-11T05:00:16;100572.11;;;-7.93;64.81
78841;BME280;68379;47.190;27.558;2024-01-11T05:02:48;100574.09;;;-7.94;64.95
78841;BME280;68379;47.190;27.558;2024-01-11T05:05:20;100571.76;;;-7.97;64.96
78841;BME280;68379;47.190;27.558;2024-01-11T05:07:51;100568.71;;;-7.99;64.95
78841;BME280;68379;47.190;27.558;2024-01-11T05:10:23;100565.65;;;-8.02;65.07
78841;BME280;68379;47.190;27.558;2024-01-11T05:12:54;100555.95;;;-8.05;65.11
78841;BME280;68379;47.190;27.558;2024-01-11T05:15:25;100559.17;;;-8.05;65.25
78841;BME280;68379;47.190;27.558;2024-01-11T05:17:58;100552.72;;;-8.08;65.53
78841;BME280;68379;47.190;27.558;2024-01-11T05:20:30;100551.27;;;-8.09;65.55
78841;BME280;68379;47.190;27.558;2024-01-11T05:23:01;100549.26;;;-8.12;65.97
78841;BME280;68379;47.190;27.558;2024-01-11T05:25:33;100549.02;;;-8.17;65.94
78841;BME280;68379;47.190;27.558;2024-01-11T05:28:06;100546.52;;;-8.19;66.10
78841;BME280;68379;47.190;27.558;2024-01-11T05:30:37;100547.00;;;-8.20;66.48
78841;BME280;68379;47.190;27.558;2024-01-11T05:33:09;100547.15;;;-8.20;66.49
78841;BME280;68379;47.190;27.558;2024-01-11T05:35:40;100544.55;;;-8.17;66.35
78841;BME280;68379;47.190;27.558;2024-01-11T05:38:13;100538.65;;;-8.15;66.45
78841;BME280;68379;47.190;27.558;2024-01-11T05:40:44;100538.70;;;-8.10;66.49
78841;BME280;68379;47.190;27.558;2024-01-11T05:43:17;100536.70;;;-8.06;66.55
78841;BME280;68379;47.190;27.558;2024-01-11T05:45:48;100528.70;;;-8.00;66.78
78841;BME280;68379;47.190;27.558;2024-01-11T05:48:20;100520.60;;;-7.98;66.95
78841;BME280;68379;47.190;27.558;2024-01-11T05:50:52;100520.41;;;-7.98;66.93
78841;BME280;68379;47.190;27.558;2024-01-11T05:53:24;100519.39;;;-8.02;66.95
78841;BME280;68379;47.190;27.558;2024-01-11T05:55:57;100508.93;;;-8.05;67.16
78841;BME280;68379;47.190;27.558;2024-01-11T05:58:29;100510.05;;;-8.07;66.96
78841;BME280;68379;47.190;27.558;2024-01-11T06:01:01;100507.59;;;-8.08;67.04
78841;BME280;68379;47.190;27.558;2024-01-11T06:03:33;100499.33;;;-8.09;66.96
78841;BME280;68379;47.190;27.558;2024-01-11T06:06:05;100505.08;;;-8.07;67.27
78841;BME280;68379;47.190;27.558;2024-01-11T06:08:37;100503.61;;;-8.09;67.34
78841;BME280;68379;47.190;27.558;2024-01-11T06:11:08;100496.19;;;-8.11;67.70
78841;BME280;68379;47.190;27.558;2024-01-11T06:13:41;100497.14;;;-8.12;68.06
78841;BME280;68379;47.190;27.558;2024-01-11T06:16:13;100496.27;;;-8.12;68.15
78841;BME280;68379;47.190;27.558;2024-01-11T06:18:44;100485.02;;;-8.11;68.52
78841;BME280;68379;47.190;27.558;2024-01-11T06:21:16;100476.55;;;-8.05;68.73
78841;BME280;68379;47.190;27.558;2024-01-11T06:23:48;100474.83;;;-8.01;68.96
78841;BME280;68379;47.190;27.558;2024-01-11T06:26:20;100473.13;;;-7.97;69.29
78841;BME280;68379;47.190;27.558;2024-01-11T06:28:52;100474.50;;;-7.93;68.57
78841;BME280;68379;47.190;27.558;2024-01-11T06:31:24;100465.52;;;-7.87;68.45
78841;BME280;68379;47.190;27.558;2024-01-11T06:33:56;100457.58;;;-7.80;68.72
78841;BME280;68379;47.190;27.558;2024-01-11T06:36:28;100453.47;;;-7.72;69.09
78841;BME280;68379;47.190;27.558;2024-01-11T06:38:59;100451.06;;;-7.65;68.62
78841;BME280;68379;47.190;27.558;2024-01-11T06:41:31;100452.64;;;-7.56;68.73
78841;BME280;68379;47.190;27.558;2024-01-11T06:44:03;100438.09;;;-7.47;68.41
78841;BME280;68379;47.190;27.558;2024-01-11T06:46:35;100434.13;;;-7.39;68.36
78841;BME280;68379;47.190;27.558;2024-01-11T06:49:09;100429.71;;;-7.37;68.34
78841;BME280;68379;47.190;27.558;2024-01-11T06:51:41;100430.38;;;-7.38;67.97
78841;BME280;68379;47.190;27.558;2024-01-11T06:54:13;100431.69;;;-7.40;68.14
78841;BME280;68379;47.190;27.558;2024-01-11T06:56:47;100429.08;;;-7.42;68.20
78841;BME280;68379;47.190;27.558;2024-01-11T06:59:18;100425.86;;;-7.35;68.15
78841;BME280;68379;47.190;27.558;2024-01-11T07:01:50;100419.19;;;-7.27;68.68
78841;BME280;68379;47.190;27.558;2024-01-11T07:04:22;100422.29;;;-7.14;68.56
78841;BME280;68379;47.190;27.558;2024-01-11T07:06:53;100418.77;;;-7.04;68.84
78841;BME280;68379;47.190;27.558;2024-01-11T07:09:25;100418.81;;;-6.94;68.58
78841;BME280;68379;47.190;27.558;2024-01-11T07:11:56;100404.06;;;-6.84;68.37
78841;BME280;68379;47.190;27.558;2024-01-11T07:14:28;100400.23;;;-6.77;68.29
78841;BME280;68379;47.190;27.558;2024-01-11T07:17:00;100399.15;;;-6.74;67.86
78841;BME280;68379;47.190;27.558;2024-01-11T07:19:32;100393.81;;;-6.70;67.87
78841;BME280;68379;47.190;27.558;2024-01-11T07:22:03;100389.52;;;-6.65;67.90
78841;BME280;68379;47.190;27.558;2024-01-11T07:24:35;100387.23;;;-6.58;67.62
78841;BME280;68379;47.190;27.558;2024-01-11T07:27:08;100384.63;;;-6.49;67.47
78841;BME280;68379;47.190;27.558;2024-01-11T07:29:39;100379.52;;;-6.39;67.58
78841;BME280;68379;47.190;27.558;2024-01-11T07:32:11;100378.90;;;-6.27;67.46
78841;BME280;68379;47.190;27.558;2024-01-11T07:34:43;100376.29;;;-6.19;67.40
78841;BME280;68379;47.190;27.558;2024-01-11T07:37:14;100374.73;;;-6.10;67.45
78841;BME280;68379;47.190;27.558;2024-01-11T07:39:46;100373.40;;;-6.04;67.04
78841;BME280;68379;47.190;27.558;2024-01-11T07:42:18;100371.45;;;-6.01;67.20
78841;BME280;68379;47.190;27.558;2024-01-11T07:44:49;100365.83;;;-5.94;67.19
78841;BME280;68379;47.190;27.558;2024-01-11T07:47:21;100364.75;;;-5.80;67.40
78841;BME280;68379;47.190;27.558;2024-01-11T07:49:54;100357.52;;;-5.64;67.37
78841;BME280;68379;47.190;27.558;2024-01-11T07:52:26;100354.34;;;-5.52;66.89
78841;BME280;68379;47.190;27.558;2024-01-11T07:54:57;100351.64;;;-5.40;67.07
78841;BME280;68379;47.190;27.558;2024-01-11T07:57:36;100354.04;;;-5.30;66.51
78841;BME280;68379;47.190;27.558;2024-01-11T08:00:09;100350.64;;;-5.23;66.74
78841;BME280;68379;47.190;27.558;2024-01-11T08:02:41;100344.73;;;-5.14;66.23
78841;BME280;68379;47.190;27.558;2024-01-11T08:05:13;100340.54;;;-5.10;65.78
78841;BME280;68379;47.190;27.558;2024-01-11T08:07:44;100338.02;;;-5.08;65.22
78841;BME280;68379;47.190;27.558;2024-01-11T08:10:16;100333.30;;;-5.10;65.42
78841;BME280;68379;47.190;27.558;2024-01-11T08:12:48;100331.59;;;-5.04;65.71
78841;BME280;68379;47.190;27.558;2024-01-11T08:15:21;100331.19;;;-4.95;66.14
78841;BME280;68379;47.190;27.558;2024-01-11T08:17:52;100327.43;;;-4.89;65.31
78841;BME280;68379;47.190;27.558;2024-01-11T08:20:25;100325.35;;;-4.89;64.96
78841;BME280;68379;47.190;27.558;2024-01-11T08:22:56;100312.02;;;-4.85;65.58
78841;BME280;68379;47.190;27.558;2024-01-11T08:25:28;100307.31;;;-4.87;65.00
78841;BME280;68379;47.190;27.558;2024-01-11T08:27:59;100309.29;;;-4.90;65.02
78841;BME280;68379;47.190;27.558;2024-01-11T08:30:33;100314.07;;;-4.91;65.09
78841;BME280;68379;47.190;27.558;2024-01-11T08:33:05;100301.60;;;-4.88;65.78
78841;BME280;68379;47.190;27.558;2024-01-11T08:35:36;100299.77;;;-4.79;65.40
78841;BME280;68379;47.190;27.558;2024-01-11T08:38:11;100299.61;;;-4.79;65.38
78841;BME280;68379;47.190;27.558;2024-01-11T08:40:45;100295.71;;;-4.71;65.47
78841;BME280;68379;47.190;27.558;2024-01-11T08:43:16;100294.30;;;-4.66;65.29
78841;BME280;68379;47.190;27.558;2024-01-11T08:45:48;100291.05;;;-4.59;65.33
78841;BME280;68379;47.190;27.558;2024-01-11T08:48:20;100289.09;;;-4.50;65.30
78841;BME280;68379;47.190;27.558;2024-01-11T08:50:52;100281.08;;;-4.40;65.16
78841;BME280;68379;47.190;27.558;2024-01-11T08:53:23;100278.04;;;-4.31;64.80
78841;BME280;68379;47.190;27.558;2024-01-11T08:55:55;100274.91;;;-4.20;65.04
78841;BME280;68379;47.190;27.558;2024-01-11T08:58:26;100273.71;;;-4.07;64.73
78841;BME280;68379;47.190;27.558;2024-01-11T09:00:59;100277.60;;;-3.89;64.91
78841;BME280;68379;47.190;27.558;2024-01-11T09:03:30;100261.46;;;-3.72;64.51
78841;BME280;68379;47.190;27.558;2024-01-11T09:06:02;100259.04;;;-3.52;63.97
78841;BME280;68379;47.190;27.558;2024-01-11T09:08:34;100255.50;;;-3.33;64.23
78841;BME280;68379;47.190;27.558;2024-01-11T09:11:05;100248.92;;;-3.11;63.96
78841;BME280;68379;47.190;27.558;2024-01-11T09:13:36;100245.02;;;-2.91;63.67
78841;BME280;68379;47.190;27.558;2024-01-11T09:16:13;100239.18;;;-2.73;63.46
78841;BME280;68379;47.190;27.558;2024-01-11T09:18:45;100238.77;;;-2.51;63.75
78841;BME280;68379;47.190;27.558;2024-01-11T09:21:16;100231.45;;;-2.26;63.29
78841;BME280;68379;47.190;27.558;2024-01-11T09:23:48;100225.77;;;-2.05;62.37
78841;BME280;68379;47.190;27.558;2024-01-11T09:26:19;100217.54;;;-1.91;62.30
78841;BME280;68379;47.190;27.558;2024-01-11T09:28:52;100209.55;;;-1.71;63.11
78841;BME280;68379;47.190;27.558;2024-01-11T09:31:23;100203.45;;;-1.52;61.39
78841;BME280;68379;47.190;27.558;2024-01-11T09:33:54;100194.46;;;-1.50;60.66
78841;BME280;68379;47.190;27.558;2024-01-11T09:36:27;100189.59;;;-1.39;59.97
78841;BME280;68379;47.190;27.558;2024-01-11T09:38:58;100184.80;;;-1.23;60.77
78841;BME280;68379;47.190;27.558;2024-01-11T09:41:31;100179.98;;;-1.06;60.51
78841;BME280;68379;47.190;27.558;2024-01-11T09:44:05;100177.35;;;-0.81;61.82
78841;BME280;68379;47.190;27.558;2024-01-11T09:46:37;100168.15;;;-0.67;58.96
78841;BME280;68379;47.190;27.558;2024-01-11T09:49:10;100159.48;;;-0.68;58.40
78841;BME280;68379;47.190;27.558;2024-01-11T09:51:41;100150.52;;;-0.60;58.45
78841;BME280;68379;47.190;27.558;2024-01-11T09:54:15;100144.67;;;-0.56;57.86
78841;BME280;68379;47.190;27.558;2024-01-11T09:56:47;100142.86;;;-0.47;58.39
78841;BME280;68379;47.190;27.558;2024-01-11T09:59:21;100142.02;;;-0.44;57.30
78841;BME280;68379;47.190;27.558;2024-01-11T10:01:55;100135.46;;;-0.40;57.19
78841;BME280;68379;47.190;27.558;2024-01-11T10:04:26;100130.79;;;-0.39;56.30
78841;BME280;68379;47.190;27.558;2024-01-11T10:06:59;100121.07;;;-0.38;56.99
78841;BME280;68379;47.190;27.558;2024-01-11T10:09:32;100121.51;;;-0.29;57.32
78841;BME280;68379;47.190;27.558;2024-01-11T10:12:04;100119.54;;;-0.14;57.28
78841;BME280;68379;47.190;27.558;2024-01-11T10:14:35;100125.81;;;-0.12;56.39
78841;BME280;68379;47.190;27.558;2024-01-11T10:17:07;100099.00;;;-0.20;56.57
78841;BME280;68379;47.190;27.558;2024-01-11T10:19:38;100107.64;;;-0.25;57.32
78841;BME280;68379;47.190;27.558;2024-01-11T10:22:10;100098.83;;;-0.21;57.16
78841;BME280;68379;47.190;27.558;2024-01-11T10:24:42;100085.77;;;-0.24;56.95
78841;BME280;68379;47.190;27.558;2024-01-11T10:27:14;100079.12;;;-0.31;56.95
78841;BME280;68379;47.190;27.558;2024-01-11T10:29:47;100083.72;;;-0.23;57.92
78841;BME280;68379;47.190;27.558;2024-01-11T10:32:18;100079.48;;;-0.09;56.31
78841;BME280;68379;47.190;27.558;2024-01-11T10:34:50;100072.96;;;0.01;57.51
78841;BME280;68379;47.190;27.558;2024-01-11T10:37:22;100071.70;;;0.24;57.95
78841;BME280;68379;47.190;27.558;2024-01-11T10:39:54;100062.23;;;0.38;57.65
78841;BME280;68379;47.190;27.558;2024-01-11T10:42:32;100064.02;;;0.48;57.21
78841;BME280;68379;47.190;27.558;2024-01-11T10:45:14;100058.67;;;0.56;57.80
78841;BME280;68379;47.190;27.558;2024-01-11T10:47:53;100052.95;;;0.62;57.81
78841;BME280;68379;47.190;27.558;2024-01-11T10:50:25;100047.23;;;0.62;55.85
78841;BME280;68379;47.190;27.558;2024-01-11T10:53:07;100047.05;;;0.60;57.26
78841;BME280;68379;47.190;27.558;2024-01-11T10:55:43;100038.02;;;0.64;57.19
78841;BME280;68379;47.190;27.558;2024-01-11T10:58:15;100038.58;;;0.77;57.63
78841;BME280;68379;47.190;27.558;2024-01-11T11:00:48;100031.84;;;0.91;57.69
78841;BME280;68379;47.190;27.558;2024-01-11T11:03:21;100026.67;;;1.04;57.80
78841;BME280;68379;47.190;27.558;2024-01-11T11:05:55;100023.52;;;1.02;56.12
78841;BME280;68379;47.190;27.558;2024-01-11T11:08:27;100020.04;;;0.98;56.18
78841;BME280;68379;47.190;27.558;2024-01-11T11:11:00;100016.20;;;0.92;54.69
78841;BME280;68379;47.190;27.558;2024-01-11T11:13:32;100011.16;;;0.91;55.72
78841;BME280;68379;47.190;27.558;2024-01-11T11:16:06;100014.27;;;0.93;56.01
78841;BME280;68379;47.190;27.558;2024-01-11T11:18:37;100007.34;;;0.98;55.88
78841;BME280;68379;47.190;27.558;2024-01-11T11:21:10;100001.60;;;1.02;55.25
78841;BME280;68379;47.190;27.558;2024-01-11T11:23:42;99998.65;;;1.04;56.05
78841;BME280;68379;47.190;27.558;2024-01-11T11:26:18;99988.05;;;1.14;55.54
78841;BME280;68379;47.190;27.558;2024-01-11T11:28:50;99987.36;;;1.26;56.13
78841;BME280;68379;47.190;27.558;2024-01-11T11:31:38;99986.34;;;1.34;55.70
78841;BME280;68379;47.190;27.558;2024-01-11T11:34:12;99983.89;;;1.37;55.79
78841;BME280;68379;47.190;27.558;2024-01-11T11:36:47;99978.13;;;1.45;56.40
78841;BME280;68379;47.190;27.558;2024-01-11T11:39:24;99967.87;;;1.48;55.12
78841;BME280;68379;47.190;27.558;2024-01-11T11:41:58;99957.42;;;1.46;56.19
78841;BME280;68379;47.190;27.558;2024-01-11T11:44:31;99957.42;;;1.43;55.85
78841;BME280;68379;47.190;27.558;2024-01-11T11:47:20;99948.37;;;1.46;55.88
78841;BME280;68379;47.190;27.558;2024-01-11T11:50:07;99949.95;;;1.47;56.05
78841;BME280;68379;47.190;27.558;2024-01-11T11:52:40;99944.20;;;1.46;56.14
78841;BME280;68379;47.190;27.558;2024-01-11T11:55:11;99936.20;;;1.45;55.23
78841;BME280;68379;47.190;27.558;2024-01-11T11:57:44;99929.93;;;1.38;55.41
78841;BME280;68379;47.190;27.558;2024-01-11T12:00:17;99923.49;;;1.38;56.53
78841;BME280;68379;47.190;27.558;2024-01-11T12:02:51;99917.23;;;1.39;56.37
78841;BME280;68379;47.190;27.558;2024-01-11T12:05:23;99916.00;;;1.46;56.56
78841;BME280;68379;47.190;27.558;2024-01-11T12:07:55;99910.94;;;1.43;55.42
78841;BME280;68379;47.190;27.558;2024-01-11T12:10:27;99907.29;;;1.37;56.29
78841;BME280;68379;47.190;27.558;2024-01-11T12:12:59;99904.15;;;1.38;57.30
78841;BME280;68379;47.190;27.558;2024-01-11T12:15:31;99899.29;;;1.38;57.13
78841;BME280;68379;47.190;27.558;2024-01-11T12:18:02;99896.52;;;1.24;56.29
78841;BME280;68379;47.190;27.558;2024-01-11T12:20:36;99890.08;;;1.18;57.67
78841;BME280;68379;47.190;27.558;2024-01-11T12:23:08;99888.52;;;1.17;58.37
78841;BME280;68379;47.190;27.558;2024-01-11T12:25:41;99885.39;;;1.16;58.75
78841;BME280;68379;47.190;27.558;2024-01-11T12:28:12;99877.91;;;1.07;58.45
78841;BME280;68379;47.190;27.558;2024-01-11T12:30:46;99873.73;;;1.04;59.46
78841;BME280;68379;47.190;27.558;2024-01-11T12:33:18;99877.21;;;1.10;59.90
78841;BME280;68379;47.190;27.558;2024-01-11T12:35:50;99874.61;;;1.06;59.98
78841;BME280;68379;47.190;27.558;2024-01-11T12:38:22;99869.91;;;0.99;60.01
78841;BME280;68379;47.190;27.558;2024-01-11T12:40:54;99871.30;;;0.93;59.30
78841;BME280;68379;47.190;27.558;2024-01-11T12:43:25;99873.22;;;0.88;58.53
78841;BME280;68379;47.190;27.558;2024-01-11T12:45:57;99870.08;;;0.85;58.58
78841;BME280;68379;47.190;27.558;2024-01-11T12:48:28;99867.83;;;0.85;58.98
78841;BME280;68379;47.190;27.558;2024-01-11T12:50:59;99870.78;;;0.88;58.65
78841;BME280;68379;47.190;27.558;2024-01-11T12:53:32;99861.39;;;0.88;58.50
78841;BME280;68379;47.190;27.558;2024-01-11T12:56:08;99861.55;;;0.86;58.62
78841;BME280;68379;47.190;27.558;2024-01-11T12:58:42;99856.51;;;0.87;58.74
78841;BME280;68379;47.190;27.558;2024-01-11T13:01:17;99851.98;;;0.87;58.90
78841;BME280;68379;47.190;27.558;2024-01-11T13:03:48;99851.98;;;0.87;58.91
78841;BME280;68379;47.190;27.558;2024-01-11T13:06:20;99852.69;;;0.88;58.90
78841;BME280;68379;47.190;27.558;2024-01-11T13:08:51;99851.82;;;0.88;59.03